Time;durP1;ratioP1;P1;durP2;ratioP2;P2;SDS_P1;SDS_P2;PMS_P1;PMS_P2;Temp;Humidity;BMP_temperature;BMP_pressure;BME280_temperature;BME280_humidity;BME280_pressure;Samples;Min_cycle;Max_cycle;Signal;HPM_P1;HPM_P2
2019/04/18 00:03:12;;;;;;;6.4;5.9;;;;;;;23.32;34.3291;1007.178;;;;
2019/04/18 00:05:50;;;;;;;6.1;5.6;;;;;;;23.31;34.29297;1007.152;;;;
2019/04/18 00:08:06;;;;;;;6.1;5.6;;;;;;;23.3;34.28027;1007.053;;;;
2019/04/18 00:10:37;;;;;;;5.6;5.1;;;;;;;23.3;34.25586;1007.077;;;;
2019/04/18 00:13:07;;;;;;;5.8;5.3;;;;;;;23.29;34.18555;1007.115;;;;
2019/04/18 00:15:40;;;;;;;6.2;5.6;;;;;;;23.29;34.1377;1007.029;;;;
2019/04/18 00:18:13;;;;;;;5.7;5.1;;;;;;;23.28;34.17188;1007.113;;;;
2019/04/18 00:20:43;;;;;;;6;5.4;;;;;;;23.27;34.12402;1007.124;;;;
2019/04/18 00:23:35;;;;;;;6.4;5.8;;;;;;;23.27;34.08887;1007.179;;;;
2019/04/18 00:26:07;;;;;;;6;5.5;;;;;;;23.27;34.04102;1007.142;;;;
2019/04/18 00:28:38;;;;;;;5.9;5.4;;;;;;;23.27;33.99414;1007.124;;;;
2019/04/18 00:31:04;;;;;;;5.9;5.4;;;;;;;23.25;33.98145;1007.109;;;;
2019/04/18 00:33:30;;;;;;;5.6;5.1;;;;;;;23.25;33.94629;1007.168;;;;
2019/04/18 00:36:21;;;;;;;6.1;5.5;;;;;;;23.25;33.9209;1007.06;;;;
2019/04/18 00:38:52;;;;;;;5.6;5.1;;;;;;;23.25;33.875;1007.187;;;;
2019/04/18 00:41:18;;;;;;;5.7;5.2;;;;;;;23.24;33.87402;1007.07;;;;
2019/04/18 00:43:50;;;;;;;5.6;5.1;;;;;;;23.23;33.84961;1006.991;;;;
2019/04/18 00:46:16;;;;;;;5.3;4.8;;;;;;;23.23;33.83789;1007.036;;;;
2019/04/18 00:49:02;;;;;;;6;5.5;;;;;;;23.23;33.77832;1007.004;;;;
2019/04/18 00:51:36;;;;;;;5.5;5.1;;;;;;;23.23;33.79102;1006.95;;;;
2019/04/18 00:54:10;;;;;;;6;5.5;;;;;;;23.22;33.75488;1007.051;;;;
2019/04/18 00:56:36;;;;;;;5.6;5.1;;;;;;;23.22;33.74219;1007.047;;;;
2019/04/18 00:59:06;;;;;;;5.4;4.9;;;;;;;23.21;33.74219;1007.021;;;;
2019/04/18 01:01:54;;;;;;;5.6;5.1;;;;;;;23.2;33.72949;1007.032;;;;
2019/04/18 01:04:27;;;;;;;6.1;5.5;;;;;;;23.19;33.70508;1007.071;;;;
2019/04/18 01:06:55;;;;;;;5.7;5.2;;;;;;;23.19;33.6582;1007.126;;;;
2019/04/18 01:09:21;;;;;;;5.7;5.2;;;;;;;23.19;33.59863;1007.135;;;;
2019/04/18 01:11:53;;;;;;;5.7;5.2;;;;;;;23.19;33.56348;1007.167;;;;
2019/04/18 01:14:28;;;;;;;5.6;5.1;;;;;;;23.19;33.51563;1007.135;;;;
2019/04/18 01:16:59;;;;;;;5.6;5;;;;;;;23.18;33.44434;1007.137;;;;
2019/04/18 01:19:28;;;;;;;5.7;5.2;;;;;;;23.18;33.39648;1007.07;;;;
2019/04/18 01:22:00;;;;;;;5;4.6;;;;;;;23.17;33.38379;1007.075;;;;
2019/04/18 01:24:43;;;;;;;5.4;4.9;;;;;;;23.17;33.34863;1007.171;;;;
2019/04/18 01:27:13;;;;;;;5.6;5.1;;;;;;;23.16;33.28906;1007.137;;;;
2019/04/18 01:29:54;;;;;;;5.3;4.8;;;;;;;23.15;33.26367;1007.076;;;;
2019/04/18 01:32:26;;;;;;;5.4;4.9;;;;;;;23.15;33.24121;1007.097;;;;
2019/04/18 01:35:03;;;;;;;5.5;5;;;;;;;23.15;33.21777;1007.053;;;;
2019/04/18 01:37:31;;;;;;;5.5;5.1;;;;;;;23.15;33.18164;1007.131;;;;
2019/04/18 01:40:12;;;;;;;5.6;5;;;;;;;23.14;33.16895;1007.064;;;;
2019/04/18 01:43:05;;;;;;;5.3;4.9;;;;;;;23.14;33.13379;1007.1;;;;
2019/04/18 01:47:51;;;;;;;5.7;5.2;;;;;;;23.13;33.08594;1007.139;;;;
2019/04/18 01:50:23;;;;;;;5.5;5;;;;;;;23.12;33.07324;1007.121;;;;
2019/04/18 01:52:56;;;;;;;5.1;4.7;;;;;;;23.12;33.0498;1007.131;;;;
2019/04/18 01:55:24;;;;;;;5.2;4.8;;;;;;;23.12;33.0498;1007.14;;;;
2019/04/18 01:57:49;;;;;;;5;4.6;;;;;;;23.12;33.00195;1007.164;;;;
2019/04/18 02:00:15;;;;;;;5.5;5;;;;;;;23.12;32.93164;1007.137;;;;
2019/04/18 02:02:51;;;;;;;5.2;4.8;;;;;;;23.11;32.90723;1007.187;;;;
2019/04/18 02:05:20;;;;;;;5.1;4.7;;;;;;;23.11;32.89551;1007.215;;;;
2019/04/18 02:07:44;;;;;;;5;4.6;;;;;;;23.1;32.88281;1007.204;;;;
2019/04/18 02:10:13;;;;;;;5.3;4.8;;;;;;;23.11;32.84766;1007.284;;;;
2019/04/18 02:12:46;;;;;;;4.7;4.3;;;;;;;23.1;32.78906;1007.194;;;;
2019/04/18 02:15:14;;;;;;;5.1;4.6;;;;;;;23.1;32.76465;1007.272;;;;
2019/04/18 02:17:40;;;;;;;4.9;4.5;;;;;;;23.09;32.74023;1007.233;;;;
2019/04/18 02:20:06;;;;;;;5.1;4.7;;;;;;;23.09;32.7168;1007.215;;;;
2019/04/18 02:22:32;;;;;;;5.2;4.8;;;;;;;23.07;32.7041;1007.191;;;;
2019/04/18 02:24:58;;;;;;;5.1;4.7;;;;;;;23.07;32.68066;1007.273;;;;
2019/04/18 02:27:36;;;;;;;4.8;4.4;;;;;;;23.07;32.65527;1007.315;;;;
2019/04/18 02:30:03;;;;;;;4.9;4.5;;;;;;;23.06;32.63184;1007.339;;;;
2019/04/18 02:32:40;;;;;;;5.1;4.6;;;;;;;23.06;32.51367;1007.368;;;;
2019/04/18 02:35:12;;;;;;;4.8;4.4;;;;;;;23.05;32.4668;1007.5;;;;
2019/04/18 02:37:41;;;;;;;5.4;4.9;;;;;;;23.05;32.50195;1007.524;;;;
2019/04/18 02:40:16;;;;;;;5;4.5;;;;;;;23.04;32.48828;1007.49;;;;
2019/04/18 02:42:58;;;;;;;4.8;4.4;;;;;;;23.04;32.40527;1007.472;;;;
2019/04/18 02:45:35;;;;;;;4.9;4.5;;;;;;;23.03;32.37012;1007.615;;;;
2019/04/18 02:48:03;;;;;;;4.8;4.4;;;;;;;23.03;32.35742;1007.607;;;;
2019/04/18 02:50:29;;;;;;;5.5;4.7;;;;;;;23.02;32.2627;1007.631;;;;
2019/04/18 02:53:07;;;;;;;5.4;4.9;;;;;;;23;32.26172;1007.644;;;;
2019/04/18 02:55:44;;;;;;;5.1;4.6;;;;;;;23;32.25;1007.689;;;;
2019/04/18 02:58:17;;;;;;;4.8;4.4;;;;;;;22.99;32.25;1007.718;;;;
2019/04/18 03:03:23;;;;;;;5;4.5;;;;;;;22.98;32.1416;1007.744;;;;
2019/04/18 03:05:46;;;;;;;5;4.6;;;;;;;22.97;32.08203;1007.75;;;;
2019/04/18 03:08:22;;;;;;;4.9;4.4;;;;;;;22.96;32.13965;1007.743;;;;
2019/04/18 03:10:51;;;;;;;5.3;4.8;;;;;;;22.94;32.05664;1007.852;;;;
2019/04/18 03:13:20;;;;;;;4.8;4.4;;;;;;;22.94;31.98535;1007.82;;;;
2019/04/18 03:15:50;;;;;;;5.1;4.7;;;;;;;22.94;32.05566;1007.816;;;;
2019/04/18 03:18:19;;;;;;;5.4;4.5;;;;;;;22.93;32.04395;1007.867;;;;
2019/04/18 03:20:48;;;;;;;4.7;4.3;;;;;;;22.93;32.03223;1007.771;;;;
2019/04/18 03:23:19;;;;;;;5;4.6;;;;;;;22.92;32.00781;1007.87;;;;
2019/04/18 03:25:53;;;;;;;4.6;4.2;;;;;;;22.92;31.97168;1007.87;;;;
2019/04/18 03:28:23;;;;;;;5.5;4.5;;;;;;;22.92;31.98438;1007.915;;;;
2019/04/18 03:30:55;;;;;;;5.7;4.6;;;;;;;22.91;31.9707;1007.85;;;;
2019/04/18 03:33:37;;;;;;;5.1;4.7;;;;;;;22.91;31.95996;1007.834;;;;
2019/04/18 03:36:13;;;;;;;5.1;4.6;;;;;;;22.9;31.94727;1007.833;;;;
2019/04/18 03:38:50;;;;;;;5.3;4.8;;;;;;;22.89;31.95898;1007.843;;;;
2019/04/18 03:41:19;;;;;;;4.4;4;;;;;;;22.89;31.94629;1007.853;;;;
2019/04/18 03:43:45;;;;;;;5.3;4.8;;;;;;;22.88;31.91016;1007.909;;;;
2019/04/18 03:46:23;;;;;;;5.1;4.3;;;;;;;22.87;31.95703;1007.889;;;;
2019/04/18 03:48:47;;;;;;;4.9;4.4;;;;;;;22.87;31.95703;1007.912;;;;
2019/04/18 03:51:13;;;;;;;4.6;4.2;;;;;;;22.87;31.94531;1007.98;;;;
2019/04/18 03:53:50;;;;;;;4.9;4.4;;;;;;;22.86;31.94434;1008.019;;;;
2019/04/18 03:56:16;;;;;;;5;4.6;;;;;;;22.86;31.94434;1007.991;;;;
2019/04/18 03:58:49;;;;;;;4.6;4.2;;;;;;;22.86;31.94434;1008.001;;;;
2019/04/18 04:02:39;;;;;;;4.7;4.2;;;;;;;22.85;31.93164;1007.971;;;;
2019/04/18 04:05:09;;;;;;;4.8;4.4;;;;;;;22.84;31.93164;1007.977;;;;
2019/04/18 04:07:41;;;;;;;5.1;4.6;;;;;;;22.84;31.90723;1008;;;;
2019/04/18 04:10:16;;;;;;;4.5;4.1;;;;;;;22.84;31.9082;1008.045;;;;
2019/04/18 04:13:02;;;;;;;4.7;4.3;;;;;;;22.84;31.90723;1008.051;;;;
2019/04/18 04:15:29;;;;;;;4.7;4.2;;;;;;;22.83;31.90723;1008.006;;;;
2019/04/18 04:18:26;;;;;;;5.2;4.7;;;;;;;22.82;31.84766;1008.071;;;;
2019/04/18 04:20:33;;;;;;;4.9;4.5;;;;;;;22.82;31.87109;1008.044;;;;
2019/04/18 04:23:07;;;;;;;4.8;4.4;;;;;;;22.81;31.87012;1008.038;;;;
2019/04/18 04:25:33;;;;;;;4.7;4.3;;;;;;;22.8;31.85742;1008.053;;;;
2019/04/18 04:28:02;;;;;;;4.6;4.2;;;;;;;22.81;31.83398;1008.016;;;;
2019/04/18 04:30:37;;;;;;;4.7;4.3;;;;;;;22.81;31.79883;1008.043;;;;
2019/04/18 04:33:03;;;;;;;4.8;4.4;;;;;;;22.81;31.83496;1008;;;;
2019/04/18 04:35:40;;;;;;;4.7;4.3;;;;;;;22.81;31.82324;1008.096;;;;
2019/04/18 04:38:33;;;;;;;4.4;4;;;;;;;22.81;31.83496;1008.093;;;;
2019/04/18 04:41:05;;;;;;;4.6;4.1;;;;;;;22.82;31.82422;1008.054;;;;
2019/04/18 04:43:43;;;;;;;4.9;4.4;;;;;;;22.83;31.82422;1008.052;;;;
2019/04/18 04:46:09;;;;;;;4.3;3.9;;;;;;;22.81;31.83496;1008.075;;;;
2019/04/18 04:48:44;;;;;;;4.6;4.2;;;;;;;22.83;31.80078;1008.084;;;;
2019/04/18 04:51:37;;;;;;;4.4;4;;;;;;;22.94;31.63184;1008.167;;;;
2019/04/18 04:54:00;;;;;;;4.3;4;;;;;;;22.97;31.60938;1008.18;;;;
2019/04/18 04:56:37;;;;;;;4.3;3.9;;;;;;;22.98;31.5752;1008.249;;;;
2019/04/18 04:58:59;;;;;;;4.5;4.1;;;;;;;22.98;31.58691;1008.167;;;;
2019/04/18 05:01:49;;;;;;;4.4;4.1;;;;;;;22.99;31.55273;1008.197;;;;
2019/04/18 05:04:17;;;;;;;4.1;3.8;;;;;;;23.01;31.44824;1008.202;;;;
2019/04/18 05:06:51;;;;;;;4.2;3.9;;;;;;;23.02;31.44824;1008.183;;;;
2019/04/18 05:09:27;;;;;;;4.6;4.2;;;;;;;23.05;31.35547;1008.232;;;;
2019/04/18 05:11:55;;;;;;;4.3;3.9;;;;;;;23.06;31.33301;1008.265;;;;
2019/04/18 05:14:24;;;;;;;4.2;3.9;;;;;;;23.1;31.25293;1008.28;;;;
2019/04/18 05:17:07;;;;;;;4.5;4.1;;;;;;;23.13;31.17285;1008.279;;;;
2019/04/18 05:19:48;;;;;;;4.3;4;;;;;;;23.15;31.10254;1008.22;;;;
2019/04/18 05:22:13;;;;;;;4;3.7;;;;;;;23.17;31.0459;1008.298;;;;
2019/04/18 05:24:40;;;;;;;4.3;3.9;;;;;;;23.19;30.95215;1008.326;;;;
2019/04/18 05:27:13;;;;;;;5.2;4.4;;;;;;;23.19;31.03516;1008.344;;;;
2019/04/18 05:29:42;;;;;;;4.2;3.8;;;;;;;23.22;30.93066;1008.297;;;;
2019/04/18 05:32:12;;;;;;;4.6;3.9;;;;;;;23.25;30.74316;1008.279;;;;
2019/04/18 05:34:45;;;;;;;4.4;3.7;;;;;;;23.27;30.65039;1008.447;;;;
2019/04/18 05:37:20;;;;;;;4.3;3.9;;;;;;;23.28;30.60449;1008.39;;;;
2019/04/18 05:39:47;;;;;;;4.6;4.2;;;;;;;23.32;30.53613;1008.406;;;;
2019/04/18 05:42:16;;;;;;;5;3.9;;;;;;;23.35;30.41992;1008.439;;;;
2019/04/18 05:44:59;;;;;;;4.1;3.7;;;;;;;23.38;30.31543;1008.498;;;;
2019/04/18 05:47:38;;;;;;;4;3.6;;;;;;;23.43;30.24805;1008.469;;;;
2019/04/18 05:49:58;;;;;;;4.2;3.8;;;;;;;23.48;30.10938;1008.472;;;;
2019/04/18 05:52:50;;;;;;;4.2;3.8;;;;;;;23.52;29.9707;1008.492;;;;
2019/04/18 05:54:56;;;;;;;4.3;3.9;;;;;;;23.57;29.82031;1008.495;;;;
2019/04/18 05:57:28;;;;;;;4.6;4;;;;;;;23.65;29.57715;1008.525;;;;
2019/04/18 06:02:54;;;;;;;4.9;3.9;;;;;;;23.77;29.32422;1008.514;;;;
2019/04/18 06:06:06;;;;;;;4.3;3.9;;;;;;;23.87;29.20117;1008.577;;;;
2019/04/18 06:07:36;;;;;;;4.3;3.9;;;;;;;23.95;28.92188;1008.546;;;;
2019/04/18 06:10:03;;;;;;;4.3;3.6;;;;;;;24;28.74805;1008.627;;;;
2019/04/18 06:12:39;;;;;;;4.8;3.8;;;;;;;24.05;28.63281;1008.593;;;;
2019/04/18 06:15:53;;;;;;;4.5;4.1;;;;;;;24.1;28.50586;1008.551;;;;
2019/04/18 06:17:36;;;;;;;4.3;3.9;;;;;;;24.17;28.3916;1008.611;;;;
2019/04/18 06:20:02;;;;;;;4.5;4.1;;;;;;;24.21;28.34766;1008.62;;;;
2019/04/18 06:22:33;;;;;;;4.5;4.1;;;;;;;24.27;28.1377;1008.672;;;;
2019/04/18 06:25:06;;;;;;;4.2;3.8;;;;;;;24.34;28.01172;1008.625;;;;
2019/04/18 06:27:36;;;;;;;4;3.5;;;;;;;24.38;28.02637;1008.626;;;;
2019/04/18 06:30:55;;;;;;;4.5;4.1;;;;;;;24.47;27.77148;1008.639;;;;
2019/04/18 06:35:01;;;;;;;4.3;3.9;;;;;;;24.65;27.52246;1008.648;;;;
2019/04/18 06:37:27;;;;;;;4.8;3.8;;;;;;;24.75;27.31445;1008.655;;;;
2019/04/18 06:39:53;;;;;;;4.6;3.8;;;;;;;24.81;27.22266;1008.62;;;;
2019/04/18 06:42:23;;;;;;;3.9;3.6;;;;;;;24.89;27.15723;1008.685;;;;
2019/04/18 06:44:53;;;;;;;4.9;3.8;;;;;;;25.01;27.02246;1008.627;;;;
2019/04/18 06:47:25;;;;;;;5.2;3.9;;;;;;;25.09;26.81348;1008.633;;;;
2019/04/18 06:50:03;;;;;;;4.1;3.5;;;;;;;25.22;26.61914;1008.61;;;;
2019/04/18 06:52:47;;;;;;;6.3;4.1;;;;;;;25.28;26.50391;1008.631;;;;
2019/04/18 06:55:20;;;;;;;6.4;4.1;;;;;;;25.33;26.58984;1008.648;;;;
2019/04/18 06:58:10;;;;;;;4.2;3.8;;;;;;;25.45;26.38281;1008.628;;;;
2019/04/18 07:00:44;;;;;;;5.4;3.8;;;;;;;25.46;26.38379;1008.754;;;;
2019/04/18 07:03:13;;;;;;;5.9;3.9;;;;;;;25.52;26.29199;1008.713;;;;
2019/04/18 07:05:47;;;;;;;4.9;4.1;;;;;;;25.54;26.25781;1008.689;;;;
2019/04/18 07:08:20;;;;;;;4.1;3.7;;;;;;;25.79;25.95215;1008.756;;;;
2019/04/18 07:10:51;;;;;;;4.6;3.7;;;;;;;27.97;23.18848;1008.72;;;;
2019/04/18 07:13:31;;;;;;;4.1;3.7;;;;;;;28.65;22.06348;1008.703;;;;
2019/04/18 07:15:48;;;;;;;4.5;3.7;;;;;;;28.16;22.75684;1008.765;;;;
2019/04/18 07:18:21;;;;;;;4.8;3.8;;;;;;;29.99;20.61816;1008.767;;;;
2019/04/18 07:20:50;;;;;;;4.3;3.5;;;;;;;28.84;21.69043;1008.706;;;;
2019/04/18 07:23:32;;;;;;;6.7;4.1;;;;;;;27.66;23.17285;1008.67;;;;
2019/04/18 07:26:19;;;;;;;4.5;4.1;;;;;;;28.35;22.61133;1008.617;;;;
2019/04/18 07:29:04;;;;;;;4;3.6;;;;;;;29.89;20.72168;1008.685;;;;
2019/04/18 07:31:52;;;;;;;4.4;4;;;;;;;29.3;21.20898;1008.624;;;;
2019/04/18 07:34:31;;;;;;;5.9;3.7;;;;;;;29.32;21.19824;1008.61;;;;
2019/04/18 07:36:58;;;;;;;4.8;3.8;;;;;;;29;21.54199;1008.578;;;;
2019/04/18 07:39:31;;;;;;;4.4;3.9;;;;;;;29.54;21.14844;1008.624;;;;
2019/04/18 07:42:12;;;;;;;4.3;3.6;;;;;;;31.88;18.59668;1008.654;;;;
2019/04/18 07:44:39;;;;;;;4.9;3.6;;;;;;;32.78;17.67969;1008.709;;;;
2019/04/18 07:47:42;;;;;;;3.9;3.6;;;;;;;34.43;16.06055;1008.661;;;;
2019/04/18 07:50:09;;;;;;;4.3;3.9;;;;;;;36.14;14.50391;1008.807;;;;
2019/04/18 07:52:49;;;;;;;4.3;3.5;;;;;;;37.19;13.64746;1008.709;;;;
2019/04/18 07:55:35;;;;;;;4.1;3.3;;;;;;;37.75;13.18848;1008.751;;;;
2019/04/18 07:57:51;;;;;;;3.5;3.2;;;;;;;38.32;12.63086;1008.69;;;;
2019/04/18 08:00:20;;;;;;;4.1;3.7;;;;;;;38.7;12.34766;1008.755;;;;
2019/04/18 08:03:06;;;;;;;4.1;3.7;;;;;;;39.06;12.1123;1008.695;;;;
2019/04/18 08:05:35;;;;;;;5.2;3.3;;;;;;;39.18;11.99316;1008.75;;;;
2019/04/18 08:08:23;;;;;;;4;3.3;;;;;;;39.46;11.81641;1008.73;;;;
2019/04/18 08:10:49;;;;;;;4.3;3.5;;;;;;;40.17;11.25879;1008.711;;;;
2019/04/18 08:13:20;;;;;;;4.5;3.7;;;;;;;40.38;11.0791;1008.793;;;;
2019/04/18 08:15:48;;;;;;;3.8;3.4;;;;;;;40.88;10.69824;1008.779;;;;
2019/04/18 08:18:25;;;;;;;3.8;3.3;;;;;;;40.41;11.00684;1008.795;;;;
2019/04/18 08:21:09;;;;;;;5.5;4.1;;;;;;;40.34;11.05371;1008.794;;;;
2019/04/18 08:23:39;;;;;;;4.6;3.5;;;;;;;40.6;10.88867;1008.779;;;;
2019/04/18 08:26:05;;;;;;;4.2;3.8;;;;;;;40.92;10.6377;1008.754;;;;
2019/04/18 08:28:31;;;;;;;4.7;3.7;;;;;;;40.73;10.73145;1008.733;;;;
2019/04/18 08:31:04;;;;;;;5.8;3.9;;;;;;;41.36;10.34082;1008.766;;;;
2019/04/18 08:33:32;;;;;;;3.8;3.5;;;;;;;41.22;10.43555;1008.737;;;;
2019/04/18 08:36:24;;;;;;;4;3.6;;;;;;;41.06;10.49316;1008.643;;;;
2019/04/18 08:38:40;;;;;;;6.1;4.1;;;;;;;41.42;10.24316;1008.654;;;;
2019/04/18 08:41:14;;;;;;;4.2;3.8;;;;;;;41.13;10.43359;1008.656;;;;
2019/04/18 08:43:43;;;;;;;5.3;3.7;;;;;;;40.77;10.67188;1008.712;;;;
2019/04/18 08:46:08;;;;;;;4.8;3.7;;;;;;;40.77;10.69629;1008.67;;;;
2019/04/18 08:48:38;;;;;;;5.9;3.7;;;;;;;40.89;10.71094;1008.714;;;;
2019/04/18 08:51:15;;;;;;;5;3.8;;;;;;;40.96;10.56543;1008.667;;;;
2019/04/18 08:53:54;;;;;;;4.5;3.9;;;;;;;38.04;12.61035;1008.625;;;;
2019/04/18 08:56:08;;;;;;;6.2;4.3;;;;;;;34.91;15.2168;1008.621;;;;
2019/04/18 08:58:38;;;;;;;5.1;4.2;;;;;;;33.16;16.92188;1008.573;;;;
2019/04/18 09:01:09;;;;;;;5.8;4.3;;;;;;;31.8;18.33984;1008.58;;;;
2019/04/18 09:03:41;;;;;;;4.5;4.1;;;;;;;31.16;19.12012;1008.526;;;;
2019/04/18 09:06:18;;;;;;;5.6;4.2;;;;;;;30.77;19.5957;1008.567;;;;
2019/04/18 09:08:52;;;;;;;5.9;4.4;;;;;;;30.31;20.12891;1008.463;;;;
2019/04/18 09:11:24;;;;;;;5.1;3.9;;;;;;;29.81;20.76563;1008.478;;;;
2019/04/18 09:14:05;;;;;;;4.7;4.3;;;;;;;29.5;21.13477;1008.449;;;;
2019/04/18 09:16:33;;;;;;;5.8;4.1;;;;;;;29.06;21.70117;1008.434;;;;
2019/04/18 09:19:03;;;;;;;5.3;4.4;;;;;;;28.73;22.12695;1008.481;;;;
2019/04/18 09:21:31;;;;;;;6.6;4.5;;;;;;;28.58;22.32324;1008.41;;;;
2019/04/18 09:23:58;;;;;;;6.8;4.7;;;;;;;28.29;22.65527;1008.425;;;;
2019/04/18 09:26:30;;;;;;;6.1;4.1;;;;;;;28.12;22.92188;1008.37;;;;
2019/04/18 09:29:07;;;;;;;6.8;4.1;;;;;;;27.96;23.06836;1008.337;;;;
2019/04/18 09:31:48;;;;;;;5.9;4;;;;;;;27.8;23.28711;1008.372;;;;
2019/04/18 09:34:22;;;;;;;5.9;4.4;;;;;;;27.58;23.57422;1008.348;;;;
2019/04/18 09:37:06;;;;;;;5;4.4;;;;;;;27.49;23.7002;1008.342;;;;
2019/04/18 09:39:31;;;;;;;5.4;4.1;;;;;;;27.38;23.84961;1008.338;;;;
2019/04/18 09:42:23;;;;;;;4.7;4.2;;;;;;;27.25;23.99805;1008.302;;;;
2019/04/18 09:44:59;;;;;;;4.6;4.1;;;;;;;27.08;24.26367;1008.283;;;;
2019/04/18 09:47:25;;;;;;;5.6;4.3;;;;;;;27.04;24.35645;1008.275;;;;
2019/04/18 09:50:06;;;;;;;5.5;4.3;;;;;;;27.11;24.26465;1008.214;;;;
2019/04/18 09:52:36;;;;;;;4.7;4.3;;;;;;;27;24.38965;1008.181;;;;
2019/04/18 09:55:10;;;;;;;5;4.2;;;;;;;26.8;24.70117;1008.161;;;;
2019/04/18 09:57:47;;;;;;;5.5;4.4;;;;;;;26.8;24.72461;1008.116;;;;
2019/04/18 10:00:16;;;;;;;5.6;4.1;;;;;;;26.71;24.88574;1008.09;;;;
2019/04/18 10:02:59;;;;;;;5.4;4.6;;;;;;;26.64;25.06055;1008.026;;;;
2019/04/18 10:05:31;;;;;;;6.3;4.6;;;;;;;26.5;25.2793;1008.071;;;;
2019/04/18 10:08:06;;;;;;;6.8;4.7;;;;;;;26.48;25.27832;1008.066;;;;
2019/04/18 10:10:41;;;;;;;6.3;4.1;;;;;;;26.41;25.44141;1008.108;;;;
2019/04/18 10:13:19;;;;;;;8.8;4.4;;;;;;;26.26;25.64648;1008.05;;;;
2019/04/18 10:15:46;;;;;;;5;4.5;;;;;;;26.21;25.67871;1007.973;;;;
2019/04/18 10:18:18;;;;;;;4.5;4.1;;;;;;;26.13;25.81738;1008.013;;;;
2019/04/18 10:20:53;;;;;;;6.3;4.2;;;;;;;26.11;25.85156;1007.99;;;;
2019/04/18 10:23:26;;;;;;;5.1;4.6;;;;;;;26.14;25.79395;1008.002;;;;
2019/04/18 10:26:22;;;;;;;5.2;4.4;;;;;;;26.02;25.9541;1007.872;;;;
2019/04/18 10:28:28;;;;;;;4.9;4.2;;;;;;;25.95;26.02051;1007.892;;;;
2019/04/18 10:31:06;;;;;;;5.9;4.6;;;;;;;25.95;26.02051;1007.806;;;;
2019/04/18 10:33:30;;;;;;;5.7;4.6;;;;;;;25.91;26.06543;1007.827;;;;
2019/04/18 10:36:08;;;;;;;5.8;4.4;;;;;;;25.88;26.18262;1007.806;;;;
2019/04/18 10:38:43;;;;;;;5.2;4.7;;;;;;;25.76;26.30664;1007.773;;;;
2019/04/18 10:41:12;;;;;;;5.4;4.6;;;;;;;25.76;26.35352;1007.718;;;;
2019/04/18 10:43:45;;;;;;;5.3;4.5;;;;;;;25.72;26.36328;1007.703;;;;
2019/04/18 10:46:11;;;;;;;5.5;4.2;;;;;;;25.64;26.47754;1007.726;;;;
2019/04/18 10:48:43;;;;;;;6.5;4.4;;;;;;;25.64;26.43066;1007.665;;;;
2019/04/18 10:51:14;;;;;;;4.8;4.3;;;;;;;25.57;26.55664;1007.648;;;;
2019/04/18 10:53:43;;;;;;;5.6;4.5;;;;;;;25.49;26.68262;1007.643;;;;
2019/04/18 10:56:14;;;;;;;5.9;4.6;;;;;;;25.46;26.69238;1007.662;;;;
2019/04/18 10:58:48;;;;;;;5.4;4.4;;;;;;;25.44;26.72754;1007.63;;;;
2019/04/18 11:01:20;;;;;;;6.2;4.6;;;;;;;25.45;26.63281;1007.623;;;;
2019/04/18 11:03:50;;;;;;;5.9;4.8;;;;;;;25.48;26.14746;1007.659;;;;
2019/04/18 11:06:30;;;;;;;5.7;4.8;;;;;;;25.4;26.65332;1007.616;;;;
2019/04/18 11:09:01;;;;;;;5.2;4.6;;;;;;;25.35;26.63867;1007.498;;;;
2019/04/18 11:11:30;;;;;;;5.9;4.6;;;;;;;25.28;26.62305;1007.618;;;;
2019/04/18 11:13:58;;;;;;;4.9;4.4;;;;;;;25.27;26.47949;1007.497;;;;
2019/04/18 11:16:32;;;;;;;5.2;4.4;;;;;;;25.25;26.57324;1007.511;;;;
2019/04/18 11:19:04;;;;;;;5;4.5;;;;;;;25.22;26.6543;1007.476;;;;
2019/04/18 11:21:49;;;;;;;5.7;4.4;;;;;;;25.19;26.58203;1007.469;;;;
2019/04/18 11:24:22;;;;;;;5.7;4.6;;;;;;;25.19;26.60449;1007.437;;;;
2019/04/18 11:26:52;;;;;;;5;4.5;;;;;;;25.16;26.61523;1007.469;;;;
2019/04/18 11:29:24;;;;;;;5;4.5;;;;;;;25.17;26.60449;1007.468;;;;
2019/04/18 11:31:51;;;;;;;5.3;4.6;;;;;;;25.13;26.54199;1007.362;;;;
2019/04/18 11:34:20;;;;;;;4.6;4.2;;;;;;;25.12;26.58984;1007.401;;;;
2019/04/18 11:36:48;;;;;;;5.3;4.7;;;;;;;25.09;26.6123;1007.301;;;;
2019/04/18 11:39:18;;;;;;;4.6;4.2;;;;;;;25.08;26.5752;1007.326;;;;
2019/04/18 11:41:45;;;;;;;4.5;4;;;;;;;25.07;26.53906;1007.324;;;;
2019/04/18 11:44:19;;;;;;;5.3;4.8;;;;;;;25.08;26.59863;1007.341;;;;
2019/04/18 11:46:54;;;;;;;4.9;4.4;;;;;;;25.06;26.55078;1007.28;;;;
2019/04/18 11:49:25;;;;;;;4.9;4.4;;;;;;;25.02;26.66699;1007.297;;;;
2019/04/18 11:51:54;;;;;;;5.2;4.4;;;;;;;25.01;26.67773;1007.342;;;;
2019/04/18 11:54:25;;;;;;;4.5;4.1;;;;;;;24.98;26.7002;1007.233;;;;
2019/04/18 11:56:56;;;;;;;4.6;4.2;;;;;;;24.98;26.75879;1007.248;;;;
2019/04/18 11:59:33;;;;;;;4.8;4.3;;;;;;;24.95;26.79297;1007.272;;;;
2019/04/18 12:01:56;;;;;;;5;4.3;;;;;;;24.92;26.82617;1007.218;;;;
2019/04/18 12:04:50;;;;;;;4.6;4.2;;;;;;;24.92;26.83887;1007.21;;;;
2019/04/18 12:06:58;;;;;;;5.3;4.2;;;;;;;24.91;26.93262;1007.221;;;;
2019/04/18 12:09:32;;;;;;;5.3;4.4;;;;;;;24.92;26.88574;1007.159;;;;
2019/04/18 12:12:07;;;;;;;4.8;4.3;;;;;;;24.92;26.88574;1007.09;;;;
2019/04/18 12:14:33;;;;;;;4.3;3.9;;;;;;;24.9;26.94434;1007.117;;;;
2019/04/18 12:17:19;;;;;;;4.3;3.9;;;;;;;24.89;26.9668;1007.079;;;;
2019/04/18 12:19:45;;;;;;;5.2;4.1;;;;;;;24.89;26.9668;1007.116;;;;
2019/04/18 12:22:16;;;;;;;4.9;4.2;;;;;;;24.86;27.02441;1007.15;;;;
2019/04/18 12:24:47;;;;;;;5.2;4.1;;;;;;;24.84;27.03516;1007.034;;;;
2019/04/18 12:27:20;;;;;;;5.2;4.3;;;;;;;24.84;27.04688;1007.016;;;;
2019/04/18 12:29:50;;;;;;;4.4;4;;;;;;;24.83;27.03516;1007.018;;;;
2019/04/18 12:32:22;;;;;;;4.9;4.2;;;;;;;24.82;27.06934;1006.942;;;;
2019/04/18 12:34:48;;;;;;;5;4.5;;;;;;;24.82;27.10547;1006.962;;;;
2019/04/18 12:37:13;;;;;;;5.4;4;;;;;;;24.78;27.16211;1006.901;;;;
2019/04/18 12:39:44;;;;;;;5.6;4.1;;;;;;;24.78;27.15039;1006.956;;;;
2019/04/18 12:42:17;;;;;;;6;4.2;;;;;;;24.79;27.15137;1006.949;;;;
2019/04/18 12:44:47;;;;;;;4.4;4;;;;;;;24.77;27.20898;1006.936;;;;
2019/04/18 12:47:26;;;;;;;5;4.2;;;;;;;24.77;27.20898;1006.889;;;;
2019/04/18 12:50:03;;;;;;;4.7;4.1;;;;;;;24.77;27.2207;1006.857;;;;
2019/04/18 12:52:36;;;;;;;4.8;4.2;;;;;;;24.74;27.27832;1006.874;;;;
2019/04/18 12:55:11;;;;;;;4.7;4.2;;;;;;;24.72;27.3125;1006.84;;;;
2019/04/18 12:57:38;;;;;;;4.3;3.9;;;;;;;24.75;27.29102;1006.829;;;;
2019/04/18 13:00:13;;;;;;;4.9;4;;;;;;;24.75;27.33789;1006.811;;;;
2019/04/18 13:02:42;;;;;;;4.8;4.3;;;;;;;24.72;27.39551;1006.78;;;;
2019/04/18 13:05:19;;;;;;;5.2;3.9;;;;;;;24.71;27.41797;1006.742;;;;
2019/04/18 13:08:11;;;;;;;4.8;4.3;;;;;;;24.71;27.42969;1006.729;;;;
2019/04/18 13:10:49;;;;;;;5;4.1;;;;;;;24.69;27.46484;1006.7;;;;
2019/04/18 13:13:03;;;;;;;4.6;4;;;;;;;24.66;27.51074;1006.748;;;;
2019/04/18 13:15:38;;;;;;;5.7;4.3;;;;;;;24.66;27.49805;1006.66;;;;
2019/04/18 13:17:54;;;;;;;4.6;4.2;;;;;;;24.68;27.46484;1006.702;;;;
2019/04/18 13:20:23;;;;;;;5.3;4.1;;;;;;;24.68;27.51172;1006.625;;;;
2019/04/18 13:22:53;;;;;;;4.5;4.1;;;;;;;24.67;27.53418;1006.613;;;;
2019/04/18 13:25:23;;;;;;;4.7;4.2;;;;;;;24.67;27.55859;1006.58;;;;
2019/04/18 13:27:56;;;;;;;5.5;4.5;;;;;;;24.67;27.57031;1006.6;;;;
2019/04/18 13:30:24;;;;;;;4.5;3.8;;;;;;;24.67;27.57031;1006.627;;;;
2019/04/18 13:32:55;;;;;;;5.2;4.2;;;;;;;24.68;27.60645;1006.557;;;;
2019/04/18 13:35:26;;;;;;;4.8;4.1;;;;;;;24.66;27.61719;1006.468;;;;
2019/04/18 13:37:59;;;;;;;4.8;4.3;;;;;;;24.64;27.68652;1006.537;;;;
2019/04/18 13:40:28;;;;;;;4.9;4.4;;;;;;;24.64;27.68652;1006.422;;;;
2019/04/18 13:43:00;;;;;;;5.5;4.5;;;;;;;24.62;27.69727;1006.444;;;;
2019/04/18 13:45:29;;;;;;;4.7;4.2;;;;;;;24.61;27.67383;1006.469;;;;
2019/04/18 13:48:00;;;;;;;5.2;4.1;;;;;;;24.61;27.70801;1006.485;;;;
2019/04/18 13:50:31;;;;;;;4.8;4.3;;;;;;;24.6;27.69629;1006.39;;;;
2019/04/18 13:53:01;;;;;;;5;3.9;;;;;;;24.61;27.68457;1006.465;;;;
2019/04/18 13:55:32;;;;;;;4.7;4.2;;;;;;;24.63;27.66309;1006.507;;;;
2019/04/18 13:58:03;;;;;;;4.9;4.4;;;;;;;24.6;27.69629;1006.482;;;;
2019/04/18 14:00:33;;;;;;;5.3;4.1;;;;;;;24.6;27.69629;1006.49;;;;
2019/04/18 14:03:04;;;;;;;4.9;4.2;;;;;;;24.63;27.62695;1006.439;;;;
2019/04/18 14:05:35;;;;;;;4.4;4;;;;;;;24.6;27.66113;1006.412;;;;
2019/04/18 14:08:08;;;;;;;4.6;4.2;;;;;;;24.58;27.68359;1006.389;;;;
2019/04/18 14:10:35;;;;;;;4.8;4.3;;;;;;;24.58;27.70703;1006.326;;;;
2019/04/18 14:13:07;;;;;;;5.4;4;;;;;;;24.58;27.71875;1006.354;;;;
2019/04/18 14:15:37;;;;;;;4.4;4;;;;;;;24.56;27.78906;1006.329;;;;
2019/04/18 14:18:09;;;;;;;4.3;3.9;;;;;;;24.55;27.84766;1006.227;;;;
2019/04/18 14:20:39;;;;;;;4.5;4.1;;;;;;;24.54;27.8584;1006.37;;;;
2019/04/18 14:23:11;;;;;;;4.3;3.9;;;;;;;24.55;27.83496;1006.245;;;;
2019/04/18 14:25:40;;;;;;;4.4;4;;;;;;;24.56;27.84766;1006.247;;;;
2019/04/18 14:28:11;;;;;;;4.5;4.1;;;;;;;24.54;27.90527;1006.238;;;;
2019/04/18 14:30:41;;;;;;;4.7;3.7;;;;;;;24.55;27.87109;1006.354;;;;
2019/04/18 14:33:12;;;;;;;4.7;4.3;;;;;;;24.56;27.82422;1006.229;;;;
2019/04/18 14:35:42;;;;;;;4.9;4.4;;;;;;;24.56;27.80078;1006.376;;;;
2019/04/18 14:38:14;;;;;;;4.4;3.9;;;;;;;24.56;27.87109;1006.27;;;;
2019/04/18 14:40:43;;;;;;;4.6;4.1;;;;;;;24.54;27.92871;1006.32;;;;
2019/04/18 14:43:15;;;;;;;4.3;3.9;;;;;;;24.55;27.84766;1006.347;;;;
2019/04/18 14:45:51;;;;;;;5.3;4;;;;;;;24.52;27.95215;1006.151;;;;
2019/04/18 14:48:33;;;;;;;4.5;4.1;;;;;;;24.53;27.89355;1006.134;;;;
2019/04/18 14:51:05;;;;;;;4.7;4.2;;;;;;;24.52;27.90527;1006.131;;;;
2019/04/18 14:53:38;;;;;;;4.1;3.7;;;;;;;24.52;27.92773;1006.151;;;;
2019/04/18 14:56:06;;;;;;;4.4;3.8;;;;;;;24.52;27.86914;1006.274;;;;
2019/04/18 14:58:37;;;;;;;4.4;4;;;;;;;24.5;27.8916;1006.31;;;;
2019/04/18 15:01:10;;;;;;;4.9;3.8;;;;;;;24.5;27.9502;1006.228;;;;
2019/04/18 15:03:41;;;;;;;4.3;3.9;;;;;;;24.5;27.90332;1006.297;;;;
2019/04/18 15:06:10;;;;;;;4.9;4;;;;;;;24.51;27.88086;1006.293;;;;
2019/04/18 15:08:53;;;;;;;4.5;3.7;;;;;;;24.52;27.91602;1006.201;;;;